createdAt,value
2022-10-09T00:00:13.613Z,7.1000000000000005
2022-10-09T00:01:13.620Z,5.300000000000001
2022-10-09T00:02:13.652Z,3.8000000000000003
2022-10-09T00:03:13.616Z,5.7
2022-10-09T00:04:13.616Z,4.4
2022-10-09T00:05:13.700Z,4
2022-10-09T00:06:13.643Z,6.5
2022-10-09T00:07:13.631Z,7.4
2022-10-09T00:08:13.624Z,4.6000000000000005
2022-10-09T00:09:13.617Z,3.8000000000000003
2022-10-09T00:10:13.621Z,7.2
2022-10-09T00:11:13.621Z,7.6000000000000005
2022-10-09T00:12:13.619Z,11.100000000000001
2022-10-09T00:13:13.622Z,3.4000000000000004
2022-10-09T00:14:13.638Z,3.3000000000000003
2022-10-09T00:15:13.628Z,3.5
2022-10-09T00:16:13.627Z,3.2
2022-10-09T00:17:13.629Z,5
2022-10-09T00:18:13.634Z,5.2
2022-10-09T00:19:13.632Z,0.8
2022-10-09T00:20:13.628Z,4.1000000000000005
2022-10-09T00:21:13.629Z,3.1
2022-10-09T00:22:13.649Z,4.800000000000001
2022-10-09T00:23:13.625Z,2.1
2022-10-09T00:24:13.637Z,0
2022-10-09T00:25:13.626Z,4.5
2022-10-09T00:26:13.629Z,5.4
2022-10-09T00:27:13.627Z,7
2022-10-09T00:28:13.700Z,4.1000000000000005
2022-10-09T00:29:13.627Z,7.1000000000000005
2022-10-09T00:30:13.636Z,6.300000000000001
2022-10-09T00:31:13.723Z,8.700000000000001
2022-10-09T00:32:13.636Z,7.300000000000001
2022-10-09T00:33:13.619Z,10.9
2022-10-09T00:34:13.632Z,5.800000000000001
2022-10-09T00:35:13.637Z,6.2
2022-10-09T00:36:13.633Z,7.7
2022-10-09T00:37:13.630Z,4.7
2022-10-09T00:38:13.649Z,7.7
2022-10-09T00:39:13.624Z,5.5
2022-10-09T00:40:13.634Z,7.1000000000000005
2022-10-09T00:41:13.637Z,4.800000000000001
2022-10-09T00:42:13.626Z,4.6000000000000005
2022-10-09T00:43:13.635Z,2
2022-10-09T00:44:13.627Z,7.1000000000000005
2022-10-09T00:45:13.628Z,3
2022-10-09T00:46:13.650Z,7.5
2022-10-09T00:47:13.630Z,5.6000000000000005
2022-10-09T00:48:13.643Z,6.4
2022-10-09T00:49:13.639Z,7.7
2022-10-09T00:50:13.635Z,4.7
2022-10-09T00:51:13.632Z,7.300000000000001
2022-10-09T00:52:13.640Z,7.2
2022-10-09T00:53:13.632Z,6
2022-10-09T00:54:13.665Z,7.9
2022-10-09T00:55:13.643Z,7.7
2022-10-09T00:56:13.643Z,5
2022-10-09T00:57:13.639Z,8.8
2022-10-09T00:58:13.650Z,4.3
2022-10-09T00:59:13.645Z,9.600000000000001
2022-10-09T01:00:13.643Z,5.6000000000000005
2022-10-09T01:01:13.655Z,8.1
2022-10-09T01:02:13.710Z,8.200000000000001
2022-10-09T01:03:13.643Z,9.5
2022-10-09T01:04:13.662Z,9.4
2022-10-09T01:05:13.656Z,10.700000000000001
2022-10-09T01:06:13.648Z,12.100000000000001
2022-10-09T01:07:13.647Z,11.8
2022-10-09T01:08:13.658Z,6.9
2022-10-09T01:09:13.655Z,10.9
2022-10-09T01:10:13.675Z,6.800000000000001
2022-10-09T01:11:13.652Z,8.3
2022-10-09T01:12:13.657Z,6.6000000000000005
2022-10-09T01:13:13.647Z,3.8000000000000003
2022-10-09T01:14:13.657Z,3.2
2022-10-09T01:15:13.666Z,4.4
2022-10-09T01:16:13.710Z,6
2022-10-09T01:17:13.654Z,5
2022-10-09T01:18:13.655Z,6.800000000000001
2022-10-09T01:19:13.655Z,6
2022-10-09T01:20:13.659Z,6.5
2022-10-09T01:21:13.658Z,9.3
2022-10-09T01:22:13.670Z,8.3
2022-10-09T01:23:13.654Z,10.8
2022-10-09T01:24:13.664Z,6.6000000000000005
2022-10-09T01:25:13.661Z,9.3
2022-10-09T01:26:13.681Z,5
2022-10-09T01:27:13.655Z,8.200000000000001
2022-10-09T01:28:13.685Z,7.1000000000000005
2022-10-09T01:29:13.658Z,4.9
2022-10-09T01:30:13.664Z,5.6000000000000005
2022-10-09T01:31:13.726Z,3.5
2022-10-09T01:32:13.662Z,6.2
2022-10-09T01:33:13.664Z,4.800000000000001
2022-10-09T01:34:13.650Z,7.1000000000000005
2022-10-09T01:35:13.663Z,3.1
2022-10-09T01:36:13.662Z,5.6000000000000005
2022-10-09T01:37:13.659Z,6.9
2022-10-09T01:38:13.656Z,5
2022-10-09T01:39:13.659Z,10.3
2022-10-09T01:40:13.663Z,7.9
2022-10-09T01:41:13.675Z,10.8
2022-10-09T01:42:13.693Z,7.9
2022-10-09T01:43:13.675Z,9.1
2022-10-09T01:44:13.678Z,3.9000000000000004
2022-10-09T01:45:13.676Z,7.2
2022-10-09T01:46:13.741Z,1.1
2022-10-09T01:47:13.673Z,2.8000000000000003
2022-10-09T01:48:13.680Z,0
2022-10-09T01:49:13.684Z,6.800000000000001
2022-10-09T01:50:13.689Z,3.3000000000000003
2022-10-09T01:51:13.685Z,5.800000000000001
2022-10-09T01:52:13.688Z,4.7
2022-10-09T01:53:13.687Z,7.9
2022-10-09T01:54:13.678Z,4.7
2022-10-09T01:55:13.683Z,7.2
2022-10-09T01:56:13.685Z,5.4
2022-10-09T01:57:13.686Z,7.7
2022-10-09T01:58:13.704Z,5.7
2022-10-09T01:59:15.955Z,4.800000000000001
2022-10-09T02:00:13.691Z,2.2
2022-10-09T02:01:13.753Z,5.1000000000000005
2022-10-09T02:02:13.865Z,3.3000000000000003
2022-10-09T02:03:13.697Z,0.8
2022-10-09T02:04:13.690Z,3.6
2022-10-09T02:05:13.692Z,5.800000000000001
2022-10-09T02:06:13.693Z,3
2022-10-09T02:07:13.695Z,2.6
2022-10-09T02:08:13.708Z,0
2022-10-09T02:09:13.703Z,0
2022-10-09T02:10:13.702Z,0
2022-10-09T02:11:13.695Z,5.9
2022-10-09T02:12:13.697Z,4.2
2022-10-09T02:13:13.710Z,3.6
2022-10-09T02:14:13.733Z,0
2022-10-09T02:15:13.709Z,0
2022-10-09T02:16:13.749Z,0
2022-10-09T02:17:13.716Z,5.9
2022-10-09T02:18:13.698Z,2.8000000000000003
2022-10-09T02:19:13.706Z,3.7
2022-10-09T02:20:13.718Z,2.4000000000000004
2022-10-09T02:21:13.711Z,4.7
2022-10-09T02:22:13.713Z,7.1000000000000005
2022-10-09T02:23:13.716Z,4.4
2022-10-09T02:24:13.717Z,3.1
2022-10-09T02:25:13.713Z,3.3000000000000003
2022-10-09T02:26:13.716Z,5.300000000000001
2022-10-09T02:27:13.708Z,2.8000000000000003
2022-10-09T02:28:13.762Z,4.4
2022-10-09T02:29:13.719Z,2.5
2022-10-09T02:30:13.746Z,2
2022-10-09T02:31:13.792Z,3.4000000000000004
2022-10-09T02:32:13.732Z,4.800000000000001
2022-10-09T02:33:13.728Z,2.8000000000000003
2022-10-09T02:34:13.719Z,1.5
2022-10-09T02:35:13.731Z,3.5
2022-10-09T02:36:13.734Z,5.5
2022-10-09T02:37:13.731Z,2.3000000000000003
2022-10-09T02:38:13.733Z,3.6
2022-10-09T02:39:13.744Z,4.6000000000000005
2022-10-09T02:40:13.738Z,4.6000000000000005
2022-10-09T02:41:13.738Z,5.2
2022-10-09T02:42:13.745Z,4.1000000000000005
2022-10-09T02:43:13.740Z,5
2022-10-09T02:44:13.744Z,3.6
2022-10-09T02:45:13.751Z,7.300000000000001
2022-10-09T02:46:13.809Z,5
2022-10-09T02:47:13.741Z,3.5
2022-10-09T02:48:13.752Z,3.9000000000000004
2022-10-09T02:49:13.753Z,2.7
2022-10-09T02:50:13.754Z,3.5
2022-10-09T02:51:13.746Z,5.1000000000000005
2022-10-09T02:52:13.751Z,2.5
2022-10-09T02:53:13.752Z,3
2022-10-09T02:54:13.740Z,3.1
2022-10-09T02:55:13.760Z,0.7000000000000001
2022-10-09T02:56:13.751Z,4.3
2022-10-09T02:57:13.759Z,4.3
2022-10-09T02:58:13.761Z,3
2022-10-09T02:59:13.746Z,3.2
2022-10-09T03:00:13.756Z,4.7
2022-10-09T03:01:13.756Z,3.5
2022-10-09T03:02:13.935Z,6.1000000000000005
2022-10-09T03:03:13.760Z,5.1000000000000005
2022-10-09T03:04:13.764Z,2.3000000000000003
2022-10-09T03:05:13.767Z,3.8000000000000003
2022-10-09T03:06:13.784Z,0
2022-10-09T03:07:13.777Z,0
2022-10-09T03:08:13.776Z,0
2022-10-09T03:09:13.785Z,5.800000000000001
2022-10-09T03:10:13.792Z,3.3000000000000003
2022-10-09T03:11:13.781Z,3.1
2022-10-09T03:12:13.781Z,3.7
2022-10-09T03:13:13.770Z,1.2000000000000002
2022-10-09T03:14:13.777Z,4.3
2022-10-09T03:15:13.773Z,4.9
2022-10-09T03:16:13.830Z,4.6000000000000005
2022-10-09T03:17:13.795Z,3.2
2022-10-09T03:18:13.800Z,3.2
2022-10-09T03:19:13.770Z,3
2022-10-09T03:20:13.783Z,1.7000000000000002
2022-10-09T03:21:13.778Z,2.7
2022-10-09T03:22:13.778Z,2.6
2022-10-09T03:23:13.776Z,1.9000000000000001
2022-10-09T03:24:13.781Z,5.5
2022-10-09T03:25:13.773Z,2.9000000000000004
2022-10-09T03:26:13.783Z,3.8000000000000003
2022-10-09T03:27:13.779Z,3.8000000000000003
2022-10-09T03:28:13.822Z,4.6000000000000005
2022-10-09T03:29:13.791Z,4.1000000000000005
2022-10-09T03:30:13.809Z,0.7000000000000001
2022-10-09T03:31:27.608Z,1
2022-10-09T03:32:13.816Z,6.6000000000000005
2022-10-09T03:33:13.788Z,3.7
2022-10-09T03:34:13.810Z,6.800000000000001
2022-10-09T03:35:13.793Z,3.7
2022-10-09T03:36:13.809Z,3.7
2022-10-09T03:37:13.790Z,2.9000000000000004
2022-10-09T03:38:13.797Z,3.2
2022-10-09T03:39:13.805Z,5.6000000000000005
2022-10-09T03:40:13.795Z,2.7
2022-10-09T03:41:13.798Z,6.300000000000001
2022-10-09T03:42:13.807Z,3
2022-10-09T03:43:13.791Z,5.5
2022-10-09T03:44:13.798Z,5.300000000000001
2022-10-09T03:45:13.822Z,2.7
2022-10-09T03:46:13.835Z,3.4000000000000004
2022-10-09T03:47:13.802Z,4.9
2022-10-09T03:48:13.814Z,5.2
2022-10-09T03:49:13.809Z,5.2
2022-10-09T03:50:13.840Z,5.1000000000000005
2022-10-09T03:51:13.817Z,4.5
2022-10-09T03:52:13.815Z,5.7
2022-10-09T03:53:13.815Z,6.6000000000000005
2022-10-09T03:54:13.824Z,7.2
2022-10-09T03:55:13.811Z,5.1000000000000005
2022-10-09T03:56:13.817Z,6.9
2022-10-09T03:57:13.816Z,6.9
2022-10-09T03:58:13.806Z,5.9
2022-10-09T03:59:13.825Z,6.5
2022-10-09T04:00:13.815Z,5.5
2022-10-09T04:01:13.902Z,3.9000000000000004
2022-10-09T04:02:13.850Z,2.8000000000000003
2022-10-09T04:03:13.823Z,5.1000000000000005
2022-10-09T04:04:13.821Z,4.2
2022-10-09T04:05:13.825Z,3.4000000000000004
2022-10-09T04:06:13.862Z,4.5
2022-10-09T04:07:13.827Z,4.7
2022-10-09T04:08:13.835Z,4.3
2022-10-09T04:09:13.831Z,6.300000000000001
2022-10-09T04:10:13.835Z,4
2022-10-09T04:11:13.835Z,6.800000000000001
2022-10-09T04:12:13.826Z,8.8
2022-10-09T04:13:13.835Z,7.2
2022-10-09T04:14:13.830Z,6
2022-10-09T04:15:13.833Z,4.800000000000001
2022-10-09T04:16:13.847Z,3.2
2022-10-09T04:17:13.831Z,2.8000000000000003
2022-10-09T04:18:13.840Z,4.800000000000001
2022-10-09T04:19:13.840Z,3.3000000000000003
2022-10-09T04:20:13.834Z,6.9
2022-10-09T04:21:13.837Z,7.9
2022-10-09T04:22:13.853Z,2.6
2022-10-09T04:23:13.838Z,2.7
2022-10-09T04:24:13.832Z,1.2000000000000002
2022-10-09T04:25:13.836Z,1.8
2022-10-09T04:26:13.849Z,7.4
2022-10-09T04:27:13.843Z,5.1000000000000005
2022-10-09T04:28:13.898Z,6.4
2022-10-09T04:29:13.833Z,4.4
2022-10-09T04:30:13.839Z,2.7
2022-10-09T04:31:13.891Z,2
2022-10-09T04:32:13.852Z,1.4000000000000001
2022-10-09T04:33:13.847Z,0
2022-10-09T04:34:13.853Z,3
2022-10-09T04:35:13.851Z,1.1
2022-10-09T04:36:13.846Z,0
2022-10-09T04:37:13.847Z,0
2022-10-09T04:38:13.875Z,0
2022-10-09T04:39:13.859Z,0
2022-10-09T04:40:13.855Z,0
2022-10-09T04:41:13.852Z,0
2022-10-09T04:42:13.844Z,0
2022-10-09T04:43:13.854Z,0
2022-10-09T04:44:13.853Z,0
2022-10-09T04:45:13.854Z,0
2022-10-09T04:46:13.940Z,0
2022-10-09T04:47:13.853Z,0
2022-10-09T04:48:13.856Z,0
2022-10-09T04:49:13.859Z,0
2022-10-09T04:50:13.856Z,0
2022-10-09T04:51:13.860Z,0
2022-10-09T04:52:13.863Z,0
2022-10-09T04:53:13.852Z,0
2022-10-09T04:54:13.874Z,0
2022-10-09T04:55:13.866Z,0
2022-10-09T04:56:13.851Z,0
2022-10-09T04:57:13.869Z,4
2022-10-09T04:58:13.866Z,3.6
2022-10-09T04:59:13.861Z,2.4000000000000004
2022-10-09T05:00:13.864Z,2.7
2022-10-09T05:01:13.887Z,3.4000000000000004
2022-10-09T05:02:13.879Z,3.9000000000000004
2022-10-09T05:03:13.856Z,1.4000000000000001
2022-10-09T05:04:13.873Z,1.8
2022-10-09T05:05:13.869Z,2.9000000000000004
2022-10-09T05:06:13.869Z,2.2
2022-10-09T05:07:13.860Z,0.8
2022-10-09T05:08:13.873Z,0
2022-10-09T05:09:13.866Z,0
2022-10-09T05:10:13.889Z,0
2022-10-09T05:11:13.869Z,0
2022-10-09T05:12:13.861Z,0
2022-10-09T05:13:13.864Z,0
2022-10-09T05:14:13.869Z,0
2022-10-09T05:15:13.866Z,0
2022-10-09T05:16:13.950Z,1.9000000000000001
2022-10-09T05:17:14.890Z,0
2022-10-09T05:18:13.857Z,0
2022-10-09T05:19:13.861Z,1.8
2022-10-09T05:20:13.877Z,0.7000000000000001
2022-10-09T05:21:13.880Z,0
2022-10-09T05:22:13.876Z,0
2022-10-09T05:23:13.868Z,0
2022-10-09T05:24:13.869Z,0
2022-10-09T05:25:13.872Z,0
2022-10-09T05:26:13.887Z,0
2022-10-09T05:27:13.864Z,0
2022-10-09T05:28:13.939Z,0
2022-10-09T05:29:13.878Z,0
2022-10-09T05:30:13.877Z,0
2022-10-09T05:31:13.906Z,0
2022-10-09T05:32:13.878Z,0
2022-10-09T05:33:13.868Z,0
2022-10-09T05:34:13.871Z,0
2022-10-09T05:35:13.873Z,0
2022-10-09T05:36:13.880Z,0
2022-10-09T05:37:13.869Z,0
2022-10-09T05:38:13.876Z,0
2022-10-09T05:39:13.882Z,0
2022-10-09T05:40:13.880Z,0
2022-10-09T05:41:13.888Z,0
2022-10-09T05:42:14.001Z,0
2022-10-09T05:43:13.886Z,0
2022-10-09T05:44:13.885Z,0
2022-10-09T05:45:13.888Z,0
2022-10-09T05:46:13.907Z,0
2022-10-09T05:47:13.883Z,0
2022-10-09T05:48:13.890Z,0
2022-10-09T05:49:13.892Z,0
2022-10-09T05:50:13.890Z,0
2022-10-09T05:51:13.904Z,0
2022-10-09T05:52:13.891Z,0
2022-10-09T05:53:13.888Z,0
2022-10-09T05:54:13.890Z,0
2022-10-09T05:55:13.893Z,0
2022-10-09T05:56:13.901Z,0
2022-10-09T05:57:13.903Z,0
2022-10-09T05:58:13.916Z,0
2022-10-09T05:59:13.893Z,0
2022-10-09T06:00:14.016Z,0
2022-10-09T06:01:13.931Z,0
2022-10-09T06:02:13.938Z,0
2022-10-09T06:03:13.902Z,0
2022-10-09T06:04:13.902Z,0
2022-10-09T06:05:13.915Z,0
2022-10-09T06:06:13.901Z,0
2022-10-09T06:07:13.899Z,0
2022-10-09T06:08:13.912Z,0
2022-10-09T06:09:13.901Z,0
2022-10-09T06:10:13.908Z,0
2022-10-09T06:11:13.907Z,0
2022-10-09T06:12:13.910Z,0
2022-10-09T06:13:13.911Z,0
2022-10-09T06:14:13.934Z,0
2022-10-09T06:15:13.905Z,0
2022-10-09T06:16:13.991Z,0
2022-10-09T06:17:13.908Z,0
2022-10-09T06:18:13.908Z,0
2022-10-09T06:19:13.904Z,0
2022-10-09T06:20:13.918Z,0
2022-10-09T06:21:13.914Z,0
2022-10-09T06:22:13.923Z,0
2022-10-09T06:23:13.911Z,0
2022-10-09T06:24:13.918Z,0
2022-10-09T06:25:13.912Z,0
2022-10-09T06:26:13.913Z,0
2022-10-09T06:27:13.919Z,0
2022-10-09T06:28:13.939Z,0
2022-10-09T06:29:13.911Z,0
2022-10-09T06:30:13.934Z,0
2022-10-09T06:31:13.997Z,0
2022-10-09T06:32:13.924Z,0
2022-10-09T06:33:13.921Z,0
2022-10-09T06:34:13.920Z,0
2022-10-09T06:35:13.928Z,0
2022-10-09T06:36:13.919Z,0
2022-10-09T06:37:13.921Z,0
2022-10-09T06:38:13.930Z,0
2022-10-09T06:39:13.919Z,0
2022-10-09T06:40:13.972Z,0
2022-10-09T06:41:13.932Z,0
2022-10-09T06:42:13.923Z,0
2022-10-09T06:43:13.927Z,0
2022-10-09T06:44:16.458Z,0
2022-10-09T06:45:13.932Z,0
2022-10-09T06:46:13.993Z,0
2022-10-09T06:47:13.927Z,0
2022-10-09T06:48:13.927Z,0
2022-10-09T06:49:13.926Z,0
2022-10-09T06:50:13.934Z,0
2022-10-09T06:51:13.939Z,0
2022-10-09T06:52:13.931Z,0
2022-10-09T06:53:13.950Z,0
2022-10-09T06:54:13.938Z,0
2022-10-09T06:55:13.934Z,0
2022-10-09T06:56:13.931Z,0
2022-10-09T06:57:13.935Z,0
2022-10-09T06:58:13.935Z,0
2022-10-09T06:59:13.937Z,0
2022-10-09T07:00:13.936Z,0
2022-10-09T07:01:13.954Z,0
2022-10-09T07:02:14.008Z,0
2022-10-09T07:03:14.021Z,0
2022-10-09T07:04:13.934Z,0
2022-10-09T07:05:13.953Z,0
2022-10-09T07:06:13.931Z,0
2022-10-09T07:07:13.938Z,0
2022-10-09T07:08:13.945Z,0
2022-10-09T07:09:13.965Z,0
2022-10-09T07:10:13.932Z,0
2022-10-09T07:11:13.943Z,0
2022-10-09T07:12:13.947Z,0
2022-10-09T07:13:13.927Z,0
2022-10-09T07:14:13.947Z,0
2022-10-09T07:15:13.948Z,0
2022-10-09T07:16:13.999Z,0
2022-10-09T07:17:13.945Z,0
2022-10-09T07:18:13.968Z,0
2022-10-09T07:19:13.949Z,0
2022-10-09T07:20:13.949Z,0
2022-10-09T07:21:13.950Z,0
2022-10-09T07:22:13.945Z,0
2022-10-09T07:23:13.942Z,0
2022-10-09T07:24:13.948Z,0
2022-10-09T07:25:13.949Z,0
2022-10-09T07:26:13.940Z,0
2022-10-09T07:27:13.948Z,0
2022-10-09T07:28:13.980Z,0
2022-10-09T07:29:13.941Z,0
2022-10-09T07:30:13.950Z,0
2022-10-09T07:31:14.012Z,0
2022-10-09T07:32:13.954Z,0
2022-10-09T07:33:13.956Z,0
2022-10-09T07:34:13.992Z,0
2022-10-09T07:35:13.949Z,0
2022-10-09T07:36:13.951Z,0
2022-10-09T07:37:13.951Z,0
2022-10-09T07:38:13.946Z,0
2022-10-09T07:39:13.955Z,0
2022-10-09T07:40:13.952Z,0
2022-10-09T07:41:13.958Z,0
2022-10-09T07:42:13.952Z,0
2022-10-09T07:43:13.948Z,0
2022-10-09T07:44:13.950Z,0
2022-10-09T07:45:13.952Z,0
2022-10-09T07:46:14.030Z,0
2022-10-09T07:47:13.963Z,0
2022-10-09T07:48:13.957Z,0
2022-10-09T07:49:13.964Z,0
2022-10-09T07:50:13.974Z,0
2022-10-09T07:51:13.956Z,0
2022-10-09T07:52:13.962Z,0
2022-10-09T07:53:13.974Z,0
2022-10-09T07:54:13.961Z,0
2022-10-09T07:55:13.960Z,0
2022-10-09T07:56:13.972Z,3.7
2022-10-09T07:57:13.961Z,1.7000000000000002
2022-10-09T07:58:13.965Z,0
2022-10-09T07:59:13.984Z,0
2022-10-09T08:00:13.963Z,0
2022-10-09T08:01:17.539Z,0
2022-10-09T08:02:14.013Z,0
2022-10-09T08:03:13.960Z,0
2022-10-09T08:04:13.965Z,0
2022-10-09T08:05:13.983Z,0
2022-10-09T08:06:13.978Z,1.6
2022-10-09T08:07:13.971Z,0
2022-10-09T08:08:13.961Z,0
2022-10-09T08:09:13.977Z,0
2022-10-09T08:10:13.969Z,0
2022-10-09T08:11:13.974Z,0
2022-10-09T08:12:13.967Z,0
2022-10-09T08:13:13.964Z,5.800000000000001
2022-10-09T08:14:18.155Z,4.4
2022-10-09T08:15:13.976Z,1.9000000000000001
2022-10-09T08:16:13.998Z,2.6
2022-10-09T08:17:13.968Z,0
2022-10-09T08:18:13.985Z,5.2
2022-10-09T08:19:13.971Z,4.800000000000001
2022-10-09T08:20:13.989Z,2.2
2022-10-09T08:21:13.975Z,4.9
2022-10-09T08:22:14.001Z,7
2022-10-09T08:23:14.001Z,8.1
2022-10-09T08:24:13.972Z,5
2022-10-09T08:25:13.969Z,3.8000000000000003
2022-10-09T08:26:13.984Z,5.1000000000000005
2022-10-09T08:27:13.976Z,6.1000000000000005
2022-10-09T08:28:14.036Z,5.9
2022-10-09T08:29:14.089Z,6.4
2022-10-09T08:30:13.998Z,1.7000000000000002
2022-10-09T08:31:14.030Z,3.2
2022-10-09T08:32:13.993Z,0
2022-10-09T08:33:13.981Z,5.6000000000000005
2022-10-09T08:34:13.983Z,7.1000000000000005
2022-10-09T08:35:13.987Z,5.6000000000000005
2022-10-09T08:36:13.992Z,6
2022-10-09T08:37:13.983Z,2.6
2022-10-09T08:38:25.554Z,6.5
2022-10-09T08:39:13.986Z,4.800000000000001
2022-10-09T08:40:13.994Z,3.9000000000000004
2022-10-09T08:41:13.995Z,0
2022-10-09T08:42:13.995Z,0
2022-10-09T08:43:13.993Z,3.8000000000000003
2022-10-09T08:44:13.999Z,3.7
2022-10-09T08:45:13.999Z,1.1
2022-10-09T08:46:17.149Z,0
2022-10-09T08:47:13.992Z,8.9
2022-10-09T08:48:13.993Z,5.2
2022-10-09T08:49:13.997Z,8.4
2022-10-09T08:50:13.994Z,4.2
2022-10-09T08:51:13.998Z,4.800000000000001
2022-10-09T08:52:14.001Z,0
2022-10-09T08:53:13.995Z,4.9
2022-10-09T08:54:14.147Z,1.4000000000000001
2022-10-09T08:55:14.001Z,5.4
2022-10-09T08:56:14.001Z,4.4
2022-10-09T08:57:14.006Z,6.2
2022-10-09T08:58:13.998Z,8.1
2022-10-09T08:59:14.008Z,5.9
2022-10-09T09:00:14.018Z,3.7
2022-10-09T09:01:14.057Z,3.5
2022-10-09T09:02:14.001Z,2.8000000000000003
2022-10-09T09:03:14.049Z,0
2022-10-09T09:04:14.004Z,0
2022-10-09T09:05:14.011Z,8.1
2022-10-09T09:06:14.003Z,4.5
2022-10-09T09:07:14.004Z,4.5
2022-10-09T09:08:14.008Z,1.8
2022-10-09T09:09:14.009Z,10
2022-10-09T09:10:14.041Z,7.6000000000000005
2022-10-09T09:11:16.108Z,11.5
2022-10-09T09:12:14.010Z,7.7
2022-10-09T09:13:14.011Z,6.300000000000001
2022-10-09T09:14:14.007Z,6.800000000000001
2022-10-09T09:15:14.018Z,9.9
2022-10-09T09:16:14.037Z,8.6
2022-10-09T09:17:14.019Z,5.6000000000000005
2022-10-09T09:18:14.013Z,10.5
2022-10-09T09:19:14.012Z,5.5
2022-10-09T09:20:14.010Z,8.8
2022-10-09T09:21:14.013Z,3.1
2022-10-09T09:22:14.012Z,8.3
2022-10-09T09:23:14.003Z,5.800000000000001
2022-10-09T09:24:14.013Z,9.8
2022-10-09T09:25:14.011Z,9.1
2022-10-09T09:26:14.041Z,9.600000000000001
2022-10-09T09:27:14.008Z,6.300000000000001
2022-10-09T09:28:14.095Z,4.4
2022-10-09T09:29:14.011Z,10.4
2022-10-09T09:30:14.010Z,11
2022-10-09T09:31:14.029Z,8.9
2022-10-09T09:32:14.016Z,6.9
2022-10-09T09:33:14.031Z,5.4
2022-10-09T09:34:14.012Z,7.800000000000001
2022-10-09T09:35:14.019Z,5.4
2022-10-09T09:36:14.012Z,13.8
2022-10-09T09:37:14.022Z,8.9
2022-10-09T09:38:14.027Z,14.700000000000001
2022-10-09T09:41:14.023Z,11.3
2022-10-09T09:42:14.045Z,12.5
2022-10-09T09:43:14.021Z,10.100000000000001
2022-10-09T09:44:14.025Z,10.9
2022-10-09T09:45:14.028Z,6.9
2022-10-09T09:46:14.100Z,7.1000000000000005
2022-10-09T09:47:14.033Z,2.3000000000000003
2022-10-09T09:48:14.026Z,7.2
2022-10-09T09:49:14.038Z,10.700000000000001
2022-10-09T09:50:28.739Z,3.9000000000000004
2022-10-09T09:51:27.789Z,8.6
2022-10-09T09:52:14.037Z,8.9
2022-10-09T09:53:14.047Z,5
2022-10-09T09:54:14.043Z,9.200000000000001
2022-10-09T09:55:14.045Z,4.3
2022-10-09T09:56:14.034Z,6.7
2022-10-09T09:57:17.210Z,5.2
2022-10-09T09:58:14.055Z,5.4
2022-10-09T09:59:14.047Z,7
2022-10-09T10:00:14.036Z,0.9
2022-10-09T10:01:14.084Z,7.6000000000000005
2022-10-09T10:02:14.098Z,6.6000000000000005
2022-10-09T10:03:14.052Z,3.9000000000000004
2022-10-09T10:04:14.046Z,0
2022-10-09T10:05:14.050Z,3
2022-10-09T10:06:14.047Z,8.6
2022-10-09T10:07:14.042Z,6.5
2022-10-09T10:08:14.045Z,5.1000000000000005
2022-10-09T10:09:14.046Z,3.1
2022-10-09T10:10:14.053Z,1.2000000000000002
2022-10-09T10:11:14.050Z,0
2022-10-09T10:12:14.049Z,0
2022-10-09T10:13:14.052Z,0
2022-10-09T10:14:14.074Z,0
2022-10-09T10:15:14.055Z,1.9000000000000001
2022-10-09T10:16:14.133Z,0
2022-10-09T10:17:16.436Z,0
2022-10-09T10:18:14.060Z,1.1
2022-10-09T10:19:14.061Z,1.5
2022-10-09T10:20:14.066Z,0
2022-10-09T10:21:14.062Z,0
2022-10-09T10:22:14.061Z,4.800000000000001
2022-10-09T10:23:14.057Z,5.6000000000000005
2022-10-09T10:24:14.062Z,3.3000000000000003
2022-10-09T10:25:15.476Z,1.2000000000000002
2022-10-09T10:26:14.070Z,3
2022-10-09T10:27:14.062Z,4.800000000000001
2022-10-09T10:28:14.088Z,0
2022-10-09T10:29:14.062Z,0
2022-10-09T10:30:14.097Z,0
2022-10-09T10:31:14.135Z,5.4
2022-10-09T10:32:14.079Z,1.5
2022-10-09T10:33:14.061Z,3.4000000000000004
2022-10-09T10:34:14.066Z,2.8000000000000003
2022-10-09T10:35:14.064Z,0
2022-10-09T10:36:14.074Z,0
2022-10-09T10:37:14.067Z,4.4
2022-10-09T10:38:14.072Z,3.9000000000000004
2022-10-09T10:39:14.077Z,0.4
2022-10-09T10:40:14.075Z,0
2022-10-09T10:41:14.079Z,1.4000000000000001
2022-10-09T10:42:14.073Z,0
2022-10-09T10:43:14.072Z,0
2022-10-09T10:44:14.076Z,0
2022-10-09T10:45:14.078Z,2.7
2022-10-09T10:46:14.151Z,1.5
2022-10-09T10:47:14.075Z,4.9
2022-10-09T10:48:14.077Z,2.5
2022-10-09T10:49:14.082Z,0.6000000000000001
2022-10-09T10:50:14.078Z,0
2022-10-09T10:51:14.088Z,3.2
2022-10-09T10:52:14.089Z,0
2022-10-09T10:53:14.087Z,4.2
2022-10-09T10:54:14.094Z,8.5
2022-10-09T10:55:14.079Z,4.7
2022-10-09T10:56:14.095Z,4.9
2022-10-09T10:57:14.095Z,1.9000000000000001
2022-10-09T10:58:14.110Z,7.5
2022-10-09T10:59:14.091Z,9.200000000000001
2022-10-09T11:00:14.099Z,1.4000000000000001
2022-10-09T11:01:14.155Z,0
2022-10-09T11:02:14.121Z,0
2022-10-09T11:03:14.192Z,0
2022-10-09T11:04:14.096Z,3.6
2022-10-09T11:05:14.113Z,8.700000000000001
2022-10-09T11:06:14.095Z,2.8000000000000003
2022-10-09T11:07:14.113Z,0
2022-10-09T11:08:14.102Z,0
2022-10-09T11:09:14.103Z,0
2022-10-09T11:10:14.111Z,4.4
2022-10-09T11:11:14.112Z,3.8000000000000003
2022-10-09T11:12:19.818Z,6.2
2022-10-09T11:13:14.109Z,3.5
2022-10-09T11:14:17.899Z,5.2
2022-10-09T11:15:14.115Z,2.5
2022-10-09T11:16:14.171Z,6.1000000000000005
2022-10-09T11:17:14.112Z,4.5
2022-10-09T11:18:14.138Z,0
2022-10-09T11:19:14.114Z,4.1000000000000005
2022-10-09T11:20:14.116Z,7.300000000000001
2022-10-09T11:21:14.116Z,5.5
2022-10-09T11:22:14.118Z,0.4
2022-10-09T11:23:14.116Z,4.6000000000000005
2022-10-09T11:24:14.152Z,7.300000000000001
2022-10-09T11:25:14.112Z,1.3
2022-10-09T11:26:14.123Z,0.7000000000000001
2022-10-09T11:27:14.128Z,1.2000000000000002
2022-10-09T11:28:14.142Z,6.6000000000000005
2022-10-09T11:29:14.128Z,6.7
2022-10-09T11:30:14.128Z,7.6000000000000005
2022-10-09T11:31:14.212Z,3.3000000000000003
2022-10-09T11:32:14.128Z,8.3
2022-10-09T11:33:14.132Z,6.6000000000000005
2022-10-09T11:34:14.143Z,6.800000000000001
2022-10-09T11:35:14.150Z,11.600000000000001
2022-10-09T11:36:14.117Z,6.800000000000001
2022-10-09T11:37:14.124Z,9
2022-10-09T11:38:14.133Z,9.600000000000001
2022-10-09T11:39:14.124Z,11.3
2022-10-09T11:40:14.155Z,4.5
2022-10-09T11:41:14.119Z,7.6000000000000005
2022-10-09T11:42:14.131Z,4.800000000000001
2022-10-09T11:43:14.133Z,4.5
2022-10-09T11:44:14.119Z,7
2022-10-09T11:45:14.128Z,7.1000000000000005
2022-10-09T11:46:14.150Z,2.5
2022-10-09T11:47:14.126Z,3
2022-10-09T11:48:14.127Z,3.5
2022-10-09T11:49:14.130Z,8.3
2022-10-09T11:50:14.256Z,8
2022-10-09T11:51:14.136Z,4.2
2022-10-09T11:52:14.132Z,3.5
2022-10-09T11:53:14.132Z,4.3
2022-10-09T11:54:14.141Z,3.4000000000000004
2022-10-09T11:55:14.131Z,1
2022-10-09T11:56:14.136Z,0
2022-10-09T11:57:15.393Z,2.3000000000000003
2022-10-09T11:58:14.138Z,0
2022-10-09T11:59:14.142Z,0
2022-10-09T12:00:14.198Z,0
2022-10-09T12:01:14.220Z,0
2022-10-09T12:02:14.219Z,0
2022-10-09T12:03:14.140Z,0
2022-10-09T12:04:14.148Z,0
2022-10-09T12:05:14.141Z,5.5
2022-10-09T12:06:14.172Z,6.300000000000001
2022-10-09T12:07:14.141Z,3
2022-10-09T12:08:15.495Z,3
2022-10-09T12:09:14.139Z,3.4000000000000004
2022-10-09T12:10:14.182Z,0.9
2022-10-09T12:11:14.147Z,4.4
2022-10-09T12:12:14.143Z,4.6000000000000005
2022-10-09T12:13:14.162Z,2.1
2022-10-09T12:14:17.104Z,4.2
2022-10-09T12:15:14.142Z,1.7000000000000002
2022-10-09T12:16:14.176Z,7.1000000000000005
2022-10-09T12:17:14.149Z,5.6000000000000005
2022-10-09T12:18:14.152Z,4.1000000000000005
2022-10-09T12:19:14.155Z,5.300000000000001
2022-10-09T12:20:14.203Z,3.2
2022-10-09T12:21:14.156Z,0
2022-10-09T12:22:14.176Z,0
2022-10-09T12:23:26.055Z,0
2022-10-09T12:24:14.153Z,0
2022-10-09T12:25:14.153Z,8.4
2022-10-09T12:26:14.171Z,0
2022-10-09T12:27:14.158Z,5.2
2022-10-09T12:28:14.200Z,7.4
2022-10-09T12:29:14.166Z,6.6000000000000005